Time;durP1;ratioP1;P1;durP2;ratioP2;P2;SDS_P1;SDS_P2;PMS_P1;PMS_P2;Temp;Humidity;BMP_temperature;BMP_pressure;BME280_temperature;BME280_humidity;BME280_pressure;Samples;Min_cycle;Max_cycle;Signal;HPM_P1;HPM_P2
2021/06/29 00:01:08;;;;;;;;;1.33;0.67;;;;;17.67;69.72;101081.69;5074561;28;45510;-71
2021/06/29 00:03:34;;;;;;;;;1.33;1.00;;;;;17.55;70.45;101077.56;5074455;27;45497;-69
2021/06/29 00:05:59;;;;;;;;;6.00;2.67;;;;;17.44;70.65;101070.66;5073809;28;48557;-73
2021/06/29 00:08:25;;;;;;;;;1.00;1.00;;;;;17.32;71.19;101073.53;5073376;27;45473;-71
2021/06/29 00:10:51;;;;;;;;;2.00;1.00;;;;;17.27;71.29;101073.16;5074421;28;45470;-69
2021/06/29 00:13:18;;;;;;;;;3.00;2.00;;;;;17.23;71.40;101068.28;5073521;27;45551;-70
2021/06/29 00:15:44;;;;;;;;;3.00;3.00;;;;;17.17;71.93;101066.25;5073274;27;46219;-70
2021/06/29 00:18:21;;;;;;;;;2.00;1.67;;;;;17.11;72.21;101071.16;5073040;27;45500;-69
2021/06/29 00:20:49;;;;;;;;;3.00;2.00;;;;;17.01;72.56;101062.41;5074643;27;45449;-70
2021/06/29 00:23:22;;;;;;;;;2.00;2.00;;;;;16.95;72.88;101060.34;5074261;28;45418;-69
2021/06/29 00:25:47;;;;;;;;;1.00;1.00;;;;;16.87;73.12;101061.03;5074656;27;46256;-68
2021/06/29 00:28:14;;;;;;;;;4.00;2.67;;;;;16.79;73.58;101051.16;5074386;27;45453;-69
2021/06/29 00:30:40;;;;;;;;;5.00;3.00;;;;;16.72;73.92;101054.53;5074825;27;45371;-69
2021/06/29 00:33:05;;;;;;;;;1.00;1.00;;;;;16.64;73.94;101052.63;5074362;27;45593;-70
2021/06/29 00:35:31;;;;;;;;;1.00;1.00;;;;;16.58;74.10;101048.75;5074980;27;45558;-69
2021/06/29 00:37:56;;;;;;;;;3.00;3.00;;;;;16.52;74.42;101053.81;5074661;27;45408;-69
2021/06/29 00:40:22;;;;;;;;;3.00;3.00;;;;;16.46;74.97;101048.09;5073507;28;45911;-68
2021/06/29 00:42:47;;;;;;;;;2.33;2.33;;;;;16.39;74.97;101044.34;5075022;27;45878;-68
2021/06/29 00:45:14;;;;;;;;;3.00;2.00;;;;;16.34;75.31;101050.06;5074344;27;46179;-68
2021/06/29 00:47:39;;;;;;;;;5.00;3.00;;;;;16.27;75.10;101048.97;5073951;27;45522;-69
2021/06/29 00:50:06;;;;;;;;;3.67;3.00;;;;;16.23;75.62;101055.56;5074844;27;45349;-69
2021/06/29 00:52:32;;;;;;;;;3.00;3.00;;;;;16.21;75.39;101046.91;5074623;27;45389;-69
2021/06/29 00:54:59;;;;;;;;;3.33;3.00;;;;;16.18;75.81;101031.28;5074656;27;45934;-68
2021/06/29 00:57:24;;;;;;;;;3.33;1.67;;;;;16.16;76.11;101026.13;5073875;27;45441;-68
2021/06/29 00:59:49;;;;;;;;;2.00;2.00;;;;;16.13;76.28;101028.22;5073640;27;45508;-69
2021/06/29 01:02:15;;;;;;;;;2.33;1.00;;;;;16.10;75.83;101024.06;5072676;28;45516;-70
2021/06/29 01:04:42;;;;;;;;;2.33;2.33;;;;;16.09;76.08;101035.63;5073244;28;47823;-69
2021/06/29 01:07:13;;;;;;;;;4.00;3.00;;;;;16.07;76.45;101028.78;5073041;27;45571;-67
2021/06/29 01:09:39;;;;;;;;;2.33;2.00;;;;;16.04;76.60;101023.78;5076689;28;45462;-67
2021/06/29 01:12:07;;;;;;;;;3.00;3.00;;;;;16.02;76.57;101026.56;5077088;27;45341;-69
2021/06/29 01:14:32;;;;;;;;;2.00;2.00;;;;;16.00;76.88;101026.72;5077696;27;45489;-66
2021/06/29 01:16:58;;;;;;;;;5.33;3.00;;;;;16.00;76.97;101029.34;5078286;27;45322;-69
2021/06/29 01:19:33;;;;;;;;;2.00;2.00;;;;;16.00;76.83;101029.34;5077210;27;45423;-70
2021/06/29 01:21:59;;;;;;;;;2.00;2.00;;;;;16.02;76.92;101033.69;5077043;27;45422;-67
2021/06/29 01:24:31;;;;;;;;;2.00;2.00;;;;;16.02;77.24;101025.72;5077643;27;45991;-68
2021/06/29 01:32:19;;;;;;;;;3.67;3.67;;;;;16.02;76.96;101025.72;5057882;28;45419;-65
2021/06/29 01:34:45;;;;;;;;;3.67;3.67;;;;;16.03;76.89;101016.81;5058041;28;46483;-66
2021/06/29 01:37:11;;;;;;;;;3.00;3.00;;;;;16.05;77.04;101015.69;5068493;27;45529;-65
2021/06/29 01:39:36;;;;;;;;;3.00;2.00;;;;;16.05;76.79;101010.41;5077928;27;45291;-65
2021/06/29 01:42:02;;;;;;;;;3.67;2.67;;;;;16.07;76.58;101012.91;5079422;27;45381;-66
2021/06/29 01:44:32;;;;;;;;;3.00;3.00;;;;;16.06;76.76;101017.38;5081318;27;45658;-67
2021/06/29 01:46:59;;;;;;;;;4.00;2.33;;;;;16.06;77.10;101021.81;5077497;27;45269;-68
2021/06/29 01:49:27;;;;;;;;;2.00;2.00;;;;;16.04;76.75;101013.19;5077287;27;45437;-65
2021/06/29 01:51:53;;;;;;;;;2.00;2.00;;;;;16.04;76.71;101014.00;5079250;27;45314;-64
2021/06/29 01:54:20;;;;;;;;;3.00;3.00;;;;;16.04;77.19;101010.53;5077905;28;46297;-65
2021/06/29 01:56:46;;;;;;;;;6.33;3.67;;;;;16.04;76.97;101007.91;5078114;27;45543;-65
2021/06/29 01:59:14;;;;;;;;;5.00;3.33;;;;;16.03;77.08;101004.38;5077696;27;45471;-65
2021/06/29 02:01:41;;;;;;;;;3.33;3.33;;;;;16.02;76.79;101000.06;5092181;27;45499;-66
2021/06/29 02:04:06;;;;;;;;;3.00;3.00;;;;;16.00;76.87;101007.34;5098386;27;46063;-63
2021/06/29 02:06:32;;;;;;;;;3.67;2.67;;;;;15.95;77.22;100997.16;5098578;27;45423;-65
2021/06/29 02:08:57;;;;;;;;;3.00;2.67;;;;;15.96;77.19;101006.78;5099113;27;45372;-64
2021/06/29 02:11:23;;;;;;;;;6.00;3.00;;;;;15.94;77.36;101008.72;5098726;27;45682;-65
2021/06/29 02:13:48;;;;;;;;;3.00;1.67;;;;;15.93;77.27;101006.22;5098154;27;46210;-65
2021/06/29 02:16:14;;;;;;;;;5.00;2.33;;;;;15.90;77.04;101007.34;5083848;27;45421;-65
2021/06/29 02:18:39;;;;;;;;;3.33;3.00;;;;;15.90;77.06;101010.00;5077817;28;45618;-65
2021/06/29 02:21:06;;;;;;;;;4.67;4.00;;;;;15.89;77.02;101004.84;5076734;27;45373;-67
2021/06/29 02:23:31;;;;;;;;;5.00;3.00;;;;;15.89;77.09;101000.38;5076506;28;48122;-68
2021/06/29 02:25:57;;;;;;;;;3.33;3.00;;;;;15.88;77.23;101004.00;5077959;28;45387;-67
2021/06/29 02:28:22;;;;;;;;;8.33;5.00;;;;;15.86;77.49;100995.38;5077490;28;45433;-67
2021/06/29 02:30:48;;;;;;;;;5.00;4.00;;;;;15.84;77.26;100995.50;5077782;28;45389;-67
2021/06/29 02:33:13;;;;;;;;;4.00;3.67;;;;;15.85;77.39;101006.94;5077191;27;45870;-67
2021/06/29 02:35:38;;;;;;;;;5.33;4.00;;;;;15.84;77.09;101008.75;5077419;27;45373;-68
2021/06/29 02:38:05;;;;;;;;;5.00;4.00;;;;;15.83;77.36;101001.78;5077953;27;45300;-67
2021/06/29 02:40:31;;;;;;;;;2.33;2.00;;;;;15.81;77.56;101003.75;5077755;27;45398;-67
2021/06/29 02:42:57;;;;;;;;;5.33;4.00;;;;;15.77;77.52;100996.19;5077142;27;46251;-68
2021/06/29 02:45:23;;;;;;;;;3.00;3.00;;;;;15.76;77.19;100999.81;5077388;27;45599;-68
2021/06/29 02:47:49;;;;;;;;;4.00;3.00;;;;;15.75;76.97;100998.13;5087493;27;45411;-68
2021/06/29 02:50:16;;;;;;;;;4.00;3.00;;;;;15.75;76.81;100998.13;5094709;27;45438;-66
2021/06/29 02:52:42;;;;;;;;;3.67;3.00;;;;;15.71;76.73;100991.44;5077195;27;45391;-67
2021/06/29 02:55:10;;;;;;;;;4.00;3.67;;;;;15.70;77.02;100995.06;5077530;27;45405;-66
2021/06/29 02:57:36;;;;;;;;;4.67;3.67;;;;;15.67;76.93;100990.88;5076829;27;45286;-66
2021/06/29 03:00:06;;;;;;;;;5.00;3.00;;;;;15.63;76.74;100984.19;5076179;28;45387;-66
2021/06/29 03:02:31;;;;;;;;;5.33;4.00;;;;;15.60;77.14;100979.19;5075859;28;46234;-66
2021/06/29 03:04:56;;;;;;;;;4.00;4.00;;;;;15.59;76.98;100972.22;5076457;27;45485;-66
2021/06/29 03:07:22;;;;;;;;;4.00;4.00;;;;;15.56;77.05;100978.63;5077491;27;45580;-67
2021/06/29 03:09:47;;;;;;;;;4.00;3.00;;;;;15.53;77.01;100973.63;5076720;27;45319;-68
2021/06/29 03:12:13;;;;;;;;;4.67;4.67;;;;;15.51;77.07;100976.41;5076794;28;45500;-67
2021/06/29 03:14:40;;;;;;;;;6.00;4.00;;;;;15.49;77.10;100970.44;5074940;27;45556;-67
2021/06/29 03:17:07;;;;;;;;;5.67;4.00;;;;;15.48;77.33;100965.28;5077083;27;45308;-67
2021/06/29 03:19:33;;;;;;;;;4.67;4.67;;;;;15.48;77.40;100959.97;5075729;28;45641;-67
2021/06/29 03:22:00;;;;;;;;;4.67;3.33;;;;;15.47;77.15;100963.59;5076849;27;46091;-66
2021/06/29 03:24:26;;;;;;;;;6.00;5.00;;;;;15.47;77.21;100958.31;5076806;27;45524;-66
2021/06/29 03:26:52;;;;;;;;;4.33;4.00;;;;;15.45;77.02;100950.50;5076757;28;45561;-67
2021/06/29 03:29:19;;;;;;;;;1.67;1.33;;;;;15.45;77.02;100944.38;5077235;28;45564;-67
2021/06/29 03:31:44;;;;;;;;;5.00;4.00;;;;;15.45;77.34;100947.00;5075928;28;45383;-66
2021/06/29 03:34:09;;;;;;;;;3.67;3.67;;;;;15.46;77.25;100953.97;5076738;28;45766;-67
2021/06/29 03:36:35;;;;;;;;;5.33;4.67;;;;;15.47;77.34;100950.38;5076518;27;45379;-64
2021/06/29 03:39:01;;;;;;;;;4.67;4.00;;;;;15.49;77.24;100953.69;5097289;27;45393;-65
2021/06/29 03:41:27;;;;;;;;;4.33;4.33;;;;;15.51;77.30;100959.69;5096700;27;46291;-64
2021/06/29 03:43:53;;;;;;;;;3.00;3.00;;;;;15.51;77.57;100944.63;5096966;27;45404;-64
2021/06/29 03:46:18;;;;;;;;;5.00;5.00;;;;;15.53;77.22;100949.81;5097146;27;45405;-64
2021/06/29 03:48:44;;;;;;;;;4.00;3.00;;;;;15.54;77.20;100956.75;5097076;27;45512;-64
2021/06/29 03:51:09;;;;;;;;;8.00;5.00;;;;;15.54;77.00;100953.28;5096790;27;45918;-64
2021/06/29 03:53:34;;;;;;;;;5.00;5.00;;;;;15.55;76.76;100963.72;5097207;27;45394;-63
2021/06/29 03:56:00;;;;;;;;;4.33;4.33;;;;;15.56;77.21;100954.81;5096636;27;45498;-65
2021/06/29 03:58:25;;;;;;;;;3.00;3.00;;;;;15.57;76.84;100942.41;5080768;27;45410;-65
2021/06/29 04:00:51;;;;;;;;;5.67;2.33;;;;;15.57;76.44;100943.25;5076165;27;45343;-65
2021/06/29 04:03:16;;;;;;;;;5.33;3.33;;;;;15.59;76.30;100951.88;5076510;27;45314;-66
2021/06/29 04:05:42;;;;;;;;;3.00;3.00;;;;;15.59;76.45;100951.88;5076180;28;45362;-64
2021/06/29 04:08:07;;;;;;;;;3.00;3.00;;;;;15.63;76.81;100953.28;5076430;27;45266;-64
2021/06/29 04:10:33;;;;;;;;;4.67;4.00;;;;;15.65;76.56;100953.97;5075865;28;45316;-64
2021/06/29 04:12:58;;;;;;;;;6.00;2.67;;;;;15.70;76.41;100958.00;5075890;28;45529;-65
2021/06/29 04:15:24;;;;;;;;;4.00;3.00;;;;;15.71;76.58;100951.72;5076314;27;45291;-67
2021/06/29 04:17:49;;;;;;;;;4.00;2.33;;;;;15.72;75.77;100951.56;5074613;28;45309;-64
2021/06/29 04:20:15;;;;;;;;;3.00;3.00;;;;;15.71;76.70;100943.78;5076008;27;45356;-64
2021/06/29 04:22:41;;;;;;;;;4.00;3.00;;;;;15.73;76.54;100941.84;5075049;27;45238;-64
2021/06/29 04:25:07;;;;;;;;;4.00;3.00;;;;;15.76;76.38;100941.53;5075487;27;45437;-63
2021/06/29 04:27:33;;;;;;;;;4.00;3.00;;;;;15.76;76.33;100938.88;5080990;27;45457;-65
2021/06/29 04:29:59;;;;;;;;;2.67;2.00;;;;;15.82;76.22;100951.59;5095982;27;46005;-65
2021/06/29 04:32:24;;;;;;;;;2.00;2.00;;;;;15.84;75.88;100953.13;5095821;27;45606;-64
2021/06/29 04:34:50;;;;;;;;;3.67;2.00;;;;;15.86;75.70;100949.50;5077023;27;45490;-64
2021/06/29 04:37:17;;;;;;;;;2.33;2.33;;;;;15.88;75.68;100956.34;5076099;28;45584;-64
2021/06/29 04:39:44;;;;;;;;;6.00;2.00;;;;;15.90;75.72;100937.63;5075335;27;45466;-65
2021/06/29 04:42:09;;;;;;;;;3.00;3.00;;;;;15.92;75.80;100936.53;5075290;27;45434;-64
2021/06/29 04:44:38;;;;;;;;;4.00;2.00;;;;;15.97;75.69;100939.56;5075931;27;45374;-65
2021/06/29 04:47:05;;;;;;;;;3.00;3.00;;;;;16.01;75.37;100940.13;5075808;27;45374;-64
2021/06/29 04:49:30;;;;;;;;;4.00;2.00;;;;;16.03;75.48;100932.84;5075834;27;46012;-65
2021/06/29 04:51:56;;;;;;;;;3.33;3.00;;;;;16.06;75.41;100937.03;5074305;28;45536;-65
2021/06/29 04:54:21;;;;;;;;;4.00;3.00;;;;;16.09;75.44;100934.09;5075531;27;45536;-66
2021/06/29 04:56:47;;;;;;;;;4.00;4.00;;;;;16.13;75.37;100938.13;5075620;27;45568;-64
2021/06/29 04:59:12;;;;;;;;;3.00;3.00;;;;;16.19;75.50;100937.56;5075418;28;46220;-64
2021/06/29 05:01:37;;;;;;;;;3.00;3.00;;;;;16.25;75.05;100939.59;5074558;27;45507;-64
2021/06/29 05:04:03;;;;;;;;;5.00;2.00;;;;;16.32;74.71;100940.69;5075493;27;45247;-64
2021/06/29 05:06:28;;;;;;;;;3.00;2.00;;;;;16.43;74.30;100944.16;5075335;27;45308;-64
2021/06/29 05:08:54;;;;;;;;;4.67;2.00;;;;;16.51;74.47;100946.88;5074928;27;45487;-63
2021/06/29 05:11:19;;;;;;;;;4.00;4.00;;;;;16.61;74.05;100947.66;5075353;27;45279;-64
2021/06/29 05:13:44;;;;;;;;;4.00;4.00;;;;;16.71;73.62;100955.59;5073910;28;45263;-64
2021/06/29 05:16:10;;;;;;;;;4.00;3.00;;;;;16.80;73.70;100961.78;5074738;27;45306;-63
2021/06/29 05:18:35;;;;;;;;;3.33;3.00;;;;;16.87;73.58;100960.22;5075115;27;45515;-64
2021/06/29 05:21:01;;;;;;;;;6.67;5.00;;;;;16.96;72.93;100964.66;5074446;28;45502;-64
2021/06/29 05:23:28;;;;;;;;;7.00;5.00;;;;;17.06;72.08;100971.72;5074880;27;45425;-64
2021/06/29 05:25:53;;;;;;;;;4.00;4.00;;;;;17.12;72.44;100968.47;5075018;27;45708;-64
2021/06/29 05:28:19;;;;;;;;;3.00;3.00;;;;;17.18;72.01;100969.66;5075068;27;46030;-64
2021/06/29 05:30:47;;;;;;;;;7.00;4.00;;;;;17.19;72.53;100977.50;5075440;27;45576;-64
2021/06/29 05:33:13;;;;;;;;;5.33;3.33;;;;;17.18;72.52;100974.97;5075049;27;45404;-65
2021/06/29 05:35:39;;;;;;;;;5.00;4.00;;;;;17.20;72.24;100978.31;5073694;28;45457;-64
2021/06/29 05:38:04;;;;;;;;;3.00;3.00;;;;;17.22;72.58;100985.16;5074847;27;45995;-66
2021/06/29 05:40:29;;;;;;;;;5.00;3.00;;;;;17.22;72.77;100976.38;5075268;28;45490;-67
2021/06/29 05:42:55;;;;;;;;;3.00;3.00;;;;;17.18;72.69;100978.47;5075320;28;45426;-67
2021/06/29 05:45:20;;;;;;;;;4.00;3.67;;;;;17.18;72.83;100985.59;5075185;27;45370;-68
2021/06/29 05:47:47;;;;;;;;;3.67;3.67;;;;;17.15;72.64;100987.59;5075117;28;45605;-68
2021/06/29 05:50:13;;;;;;;;;3.33;3.33;;;;;17.15;73.07;100989.38;5074156;27;45432;-64
2021/06/29 05:52:40;;;;;;;;;4.67;3.67;;;;;17.14;72.64;100995.69;5074698;27;45317;-64
2021/06/29 05:55:08;;;;;;;;;4.33;4.33;;;;;17.14;72.54;100995.69;5076442;27;45600;-64
2021/06/29 05:57:36;;;;;;;;;3.00;2.67;;;;;17.12;72.40;100984.38;5077814;27;45341;-63
2021/06/29 06:00:06;;;;;;;;;2.00;2.00;;;;;17.12;72.35;100987.88;5079412;27;45235;-64
2021/06/29 06:02:32;;;;;;;;;5.00;4.00;;;;;17.13;72.96;100988.72;5098921;27;45477;-64
2021/06/29 06:04:57;;;;;;;;;5.67;5.00;;;;;17.14;72.90;100991.22;5080831;27;45441;-64
2021/06/29 06:07:22;;;;;;;;;5.33;4.67;;;;;17.15;72.68;100998.19;5077875;27;46668;-65
2021/06/29 06:09:48;;;;;;;;;6.00;5.00;;;;;17.15;72.67;100994.69;5078212;27;45508;-63
2021/06/29 06:12:13;;;;;;;;;3.33;3.33;;;;;17.15;73.27;100997.34;5078151;27;45544;-64
2021/06/29 06:14:39;;;;;;;;;5.67;2.33;;;;;17.17;73.13;101005.19;5078263;27;45447;-64
2021/06/29 06:17:04;;;;;;;;;7.00;4.00;;;;;17.16;73.20;101004.34;5076395;28;47270;-64
2021/06/29 06:19:30;;;;;;;;;3.00;2.67;;;;;17.15;73.50;101003.50;5076588;28;45457;-65
2021/06/29 06:21:55;;;;;;;;;5.00;5.00;;;;;17.18;73.63;101006.84;5076307;27;45382;-64
2021/06/29 06:24:20;;;;;;;;;6.67;6.00;;;;;17.15;73.51;100997.34;5078074;27;45566;-65
2021/06/29 06:26:46;;;;;;;;;7.00;5.33;;;;;17.17;73.66;101005.19;5077479;27;46087;-64
2021/06/29 06:29:11;;;;;;;;;5.00;2.67;;;;;17.18;73.81;101007.69;5077965;28;45360;-64
2021/06/29 06:31:37;;;;;;;;;3.67;3.00;;;;;17.18;73.92;101002.38;5077120;27;45413;-64
2021/06/29 06:34:02;;;;;;;;;5.00;5.00;;;;;17.20;73.00;101005.69;5077713;27;45476;-63
2021/06/29 06:36:28;;;;;;;;;6.67;4.00;;;;;17.21;73.84;101002.06;5077287;28;46146;-66
2021/06/29 06:38:54;;;;;;;;;4.00;3.00;;;;;17.20;73.53;101000.38;5077072;27;45344;-64
2021/06/29 06:41:19;;;;;;;;;0.67;0.67;;;;;17.22;73.84;101002.91;5077496;27;45698;-64
2021/06/29 06:43:45;;;;;;;;;3.67;3.67;;;;;17.22;73.61;101006.38;5077738;28;45343;-64
2021/06/29 06:46:11;;;;;;;;;4.00;4.00;;;;;17.24;73.81;101000.94;5077608;27;45379;-65
2021/06/29 06:48:37;;;;;;;;;5.00;5.00;;;;;17.26;73.83;100997.13;5077584;28;45436;-65
2021/06/29 06:51:04;;;;;;;;;6.67;4.33;;;;;17.29;73.87;100999.50;5077429;27;45370;-64
2021/06/29 06:53:30;;;;;;;;;4.00;4.00;;;;;17.30;73.63;101005.63;5075487;27;45473;-64
2021/06/29 06:55:55;;;;;;;;;6.67;6.00;;;;;17.28;73.83;101007.59;5077625;27;45413;-64
2021/06/29 06:58:21;;;;;;;;;4.33;3.67;;;;;17.27;73.56;101006.78;5077359;28;45302;-64
2021/06/29 07:00:47;;;;;;;;;5.00;5.00;;;;;17.27;73.56;101006.78;5077838;28;45249;-63
2021/06/29 07:03:12;;;;;;;;;6.33;5.33;;;;;17.25;73.65;101008.72;5076565;27;45478;-65
2021/06/29 07:05:38;;;;;;;;;3.33;3.33;;;;;17.25;74.01;101013.22;5076600;27;46122;-65
2021/06/29 07:08:03;;;;;;;;;6.00;5.33;;;;;17.22;74.17;101017.00;5077609;27;45412;-64
2021/06/29 07:10:29;;;;;;;;;7.00;5.33;;;;;17.20;74.45;101011.00;5076249;28;45412;-64
2021/06/29 07:12:54;;;;;;;;;7.67;6.00;;;;;17.19;74.84;101019.97;5077288;27;45586;-65
2021/06/29 07:15:21;;;;;;;;;6.33;4.67;;;;;17.14;75.24;101012.44;5076769;27;46159;-65
2021/06/29 07:17:47;;;;;;;;;7.33;6.67;;;;;17.13;75.36;101015.25;5077282;27;45588;-64
2021/06/29 07:20:13;;;;;;;;;6.67;4.33;;;;;17.14;75.60;101016.94;5076765;27;45442;-65
2021/06/29 07:22:40;;;;;;;;;4.67;4.67;;;;;17.13;75.74;101018.75;5076237;27;45511;-64
2021/06/29 07:25:07;;;;;;;;;11.00;9.33;;;;;17.16;75.80;101020.25;5077013;27;45564;-64
2021/06/29 07:27:33;;;;;;;;;5.33;5.33;;;;;17.16;75.85;101020.25;5076924;27;45840;-64
2021/06/29 07:29:59;;;;;;;;;6.67;6.67;;;;;17.18;75.97;101023.59;5077224;27;45418;-65
2021/06/29 07:32:25;;;;;;;;;70.50;54.75;;;;;17.21;76.31;101027.78;5081217;27;45299;-64
2021/06/29 07:34:51;;;;;;;;;7.67;7.67;;;;;17.23;76.19;101025.78;5075254;27;46518;-63
2021/06/29 07:37:17;;;;;;;;;7.67;7.67;;;;;17.26;76.34;101026.34;5076315;27;45394;-64
2021/06/29 07:39:42;;;;;;;;;10.00;8.33;;;;;17.34;76.38;101016.78;5085966;27;45403;-65
2021/06/29 07:42:08;;;;;;;;;9.00;6.33;;;;;17.41;76.09;101021.34;5076666;28;45321;-64
2021/06/29 07:44:33;;;;;;;;;8.00;8.00;;;;;17.48;75.89;101030.38;5076672;27;45310;-65
2021/06/29 07:46:59;;;;;;;;;8.00;6.33;;;;;17.57;75.74;101023.31;5076386;27;45249;-65
2021/06/29 07:49:26;;;;;;;;;7.67;7.67;;;;;17.71;75.41;101024.59;5075856;28;45270;-64
2021/06/29 07:51:52;;;;;;;;;6.00;6.00;;;;;17.85;75.41;101025.88;5076510;27;45762;-65
2021/06/29 07:54:19;;;;;;;;;5.33;4.67;;;;;17.98;75.40;101026.34;5076156;27;46511;-65
2021/06/29 07:56:45;;;;;;;;;7.67;6.00;;;;;18.11;74.86;101030.38;5090174;27;45411;-65
2021/06/29 07:59:10;;;;;;;;;18.00;16.33;;;;;18.24;74.68;101024.66;5085098;27;45523;-65
2021/06/29 08:01:37;;;;;;;;;8.67;6.33;;;;;18.39;74.29;101022.25;5075874;28;45399;-63
2021/06/29 08:04:03;;;;;;;;;10.00;10.00;;;;;18.49;73.85;101025.63;5076594;27;45456;-64
2021/06/29 08:06:29;;;;;;;;;12.00;10.33;;;;;18.60;73.49;101025.38;5075706;28;45409;-64
2021/06/29 08:08:54;;;;;;;;;7.67;7.00;;;;;18.64;73.15;101029.38;5076496;27;45426;-64
2021/06/29 08:11:20;;;;;;;;;12.00;7.00;;;;;18.72;72.78;101031.25;5076177;28;45422;-64
2021/06/29 08:13:46;;;;;;;;;8.67;6.00;;;;;18.76;72.66;101023.75;5075934;27;46277;-65
2021/06/29 08:16:11;;;;;;;;;6.00;5.00;;;;;18.83;72.84;101027.44;5075946;28;45504;-65
2021/06/29 08:18:38;;;;;;;;;9.00;9.00;;;;;18.90;73.58;101027.66;5076007;28;45465;-64
2021/06/29 08:21:05;;;;;;;;;4.33;4.33;;;;;18.95;72.35;101023.53;5076173;27;45470;-64
2021/06/29 08:23:31;;;;;;;;;6.00;5.00;;;;;18.99;71.95;101024.03;5076126;27;45389;-63
2021/06/29 08:25:57;;;;;;;;;3.00;3.00;;;;;19.05;71.44;101038.53;5075790;28;45343;-65
2021/06/29 08:28:23;;;;;;;;;7.00;6.67;;;;;19.11;71.35;101032.53;5075880;27;45414;-64
2021/06/29 08:30:51;;;;;;;;;5.00;5.00;;;;;19.14;70.28;101037.56;5074281;28;45173;-64
2021/06/29 08:33:20;;;;;;;;;3.67;3.33;;;;;19.14;69.25;101032.22;5076544;27;46400;-64
2021/06/29 08:35:47;;;;;;;;;3.00;2.00;;;;;19.19;68.65;101039.72;5074407;27;45422;-63
2021/06/29 08:38:13;;;;;;;;;2.00;2.00;;;;;19.15;67.92;101041.88;5075755;27;45352;-63
2021/06/29 08:40:40;;;;;;;;;1.67;1.00;;;;;19.15;67.64;101033.91;5080646;27;45622;-64
2021/06/29 08:43:10;;;;;;;;;1.67;1.67;;;;;19.15;68.16;101033.03;5080148;27;47578;-64
2021/06/29 08:45:37;;;;;;;;;6.00;2.00;;;;;19.08;68.43;101017.75;5075146;27;45463;-65
2021/06/29 08:48:04;;;;;;;;;2.33;2.33;;;;;19.09;68.58;101045.19;5075825;27;45292;-64
2021/06/29 08:50:31;;;;;;;;;7.67;7.33;;;;;19.04;68.71;101028.88;5075313;27;45363;-64
2021/06/29 08:53:08;;;;;;;;;5.67;5.00;;;;;19.01;68.88;101031.88;5075278;27;45612;-64
2021/06/29 08:55:43;;;;;;;;;12.00;10.00;;;;;19.01;68.45;101027.38;5075604;28;45611;-64
2021/06/29 08:58:09;;;;;;;;;12.00;10.67;;;;;19.00;68.62;101031.03;5075550;27;45397;-64
2021/06/29 09:00:37;;;;;;;;;7.33;5.00;;;;;19.00;69.01;101030.19;5074939;27;45485;-65
2021/06/29 09:03:03;;;;;;;;;8.67;8.67;;;;;19.00;68.13;101032.84;5087498;27;46341;-63
2021/06/29 09:05:29;;;;;;;;;15.67;14.33;;;;;19.06;68.77;101034.88;5076115;27;45367;-64
2021/06/29 09:08:13;;;;;;;;;15.67;13.33;;;;;19.10;68.72;101030.88;5082015;27;45276;-64
2021/06/29 09:10:41;;;;;;;;;10.00;10.00;;;;;19.14;68.74;101029.56;5095994;27;45346;-64
2021/06/29 09:13:08;;;;;;;;;7.00;7.00;;;;;19.18;68.59;101038.88;5078362;27;45361;-65
2021/06/29 09:15:43;;;;;;;;;2.67;2.67;;;;;19.23;68.74;101028.59;5075318;27;45456;-67
2021/06/29 09:18:10;;;;;;;;;6.67;4.00;;;;;19.23;68.57;101025.91;5075635;27;45480;-67
2021/06/29 09:20:40;;;;;;;;;5.67;4.00;;;;;19.26;68.34;101030.91;5075228;27;45544;-67
2021/06/29 09:23:15;;;;;;;;;5.00;3.67;;;;;19.26;67.56;101035.41;5075198;28;46237;-67
2021/06/29 09:25:43;;;;;;;;;5.00;4.00;;;;;19.26;67.79;101030.91;5083891;27;45624;-67
2021/06/29 09:28:13;;;;;;;;;5.00;2.00;;;;;19.25;68.04;101029.25;5078849;27;45470;-68
2021/06/29 09:30:42;;;;;;;;;4.00;4.00;;;;;19.27;67.35;101031.75;5082819;27;45437;-67
2021/06/29 09:33:25;;;;;;;;;2.00;2.00;;;;;19.26;67.51;101030.91;5084740;27;45495;-68
2021/06/29 09:35:53;;;;;;;;;2.00;2.00;;;;;19.32;66.98;101033.91;5078639;27;45405;-67
2021/06/29 09:38:27;;;;;;;;;3.67;2.00;;;;;19.37;67.09;101026.25;5078670;28;45462;-68
2021/06/29 09:41:14;;;;;;;;;0.67;0.67;;;;;19.49;67.02;101030.28;5078857;27;45566;-68
2021/06/29 09:43:41;;;;;;;;;3.00;1.00;;;;;19.73;66.35;101024.16;5086281;27;47323;-68
2021/06/29 09:46:10;;;;;;;;;1.00;1.00;;;;;19.98;66.00;101029.47;5078665;27;45421;-68
2021/06/29 09:48:44;;;;;;;;;1.00;1.00;;;;;20.21;66.46;101018.94;5080363;27;45502;-68
2021/06/29 09:51:22;;;;;;;;;2.00;2.00;;;;;20.47;65.20;101017.03;5084162;27;45453;-67
2021/06/29 09:53:51;;;;;;;;;1.33;1.33;;;;;20.66;63.90;101019.28;5078078;28;45420;-68
2021/06/29 09:56:24;;;;;;;;;1.33;1.33;;;;;20.85;63.07;101018.06;5078480;27;45516;-68
2021/06/29 09:58:55;;;;;;;;;2.00;2.00;;;;;21.04;61.66;101014.13;5078282;27;45645;-67
2021/06/29 10:01:25;;;;;;;;;4.00;1.00;;;;;21.21;61.75;101009.53;5077088;28;45683;-69
2021/06/29 10:03:55;;;;;;;;;2.67;2.00;;;;;21.39;62.51;101021.75;5078376;27;45504;-67
2021/06/29 10:06:23;;;;;;;;;1.00;1.00;;;;;21.52;62.58;101010.47;5078259;27;45207;-68
2021/06/29 10:09:13;;;;;;;;;15.67;15.33;;;;;21.58;62.24;101013.28;5078065;27;45417;-67
2021/06/29 10:11:39;;;;;;;;;1.67;1.67;;;;;21.66;60.85;101006.22;5077490;27;45730;-68
2021/06/29 10:14:16;;;;;;;;;2.00;1.00;;;;;21.65;60.83;101016.06;5077300;28;46388;-67
2021/06/29 10:16:48;;;;;;;;;8.33;7.00;;;;;21.68;60.72;101007.69;5077439;27;45333;-67
2021/06/29 10:19:34;;;;;;;;;3.67;3.00;;;;;21.74;59.38;101014.16;5077987;27;45520;-68
2021/06/29 10:22:02;;;;;;;;;2.33;2.33;;;;;21.82;59.54;101007.91;5069178;28;45291;-67
2021/06/29 10:24:32;;;;;;;;;7.33;6.00;;;;;21.90;59.84;101014.00;5077726;27;46236;-67
2021/06/29 10:27:00;;;;;;;;;3.00;3.00;;;;;22.00;60.33;101013.72;5076837;27;45362;-67
2021/06/29 10:29:27;;;;;;;;;4.00;3.00;;;;;22.01;58.74;101003.88;5078180;27;45369;-67
2021/06/29 10:31:58;;;;;;;;;3.33;1.67;;;;;21.98;59.53;101007.75;5077305;27;45573;-67
2021/06/29 10:34:26;;;;;;;;;3.00;3.00;;;;;21.99;59.63;101005.88;5076975;27;46241;-67
2021/06/29 10:36:54;;;;;;;;;3.33;3.33;;;;;22.04;59.36;101001.69;5079157;27;45309;-66
2021/06/29 10:39:23;;;;;;;;;1.00;1.00;;;;;22.04;59.70;101001.69;5077855;27;45438;-67
2021/06/29 10:41:53;;;;;;;;;1.67;0.67;;;;;22.03;59.29;100991.97;5076525;27;45311;-66
2021/06/29 10:44:23;;;;;;;;;2.00;2.00;;;;;21.95;60.07;100994.72;5077938;27;46534;-65
2021/06/29 10:46:51;;;;;;;;;2.67;2.00;;;;;21.91;59.71;100994.28;5082889;27;45390;-67
2021/06/29 10:49:40;;;;;;;;;2.67;1.00;;;;;21.84;59.97;100990.66;5075537;27;45444;-66
2021/06/29 10:52:08;;;;;;;;;2.00;2.00;;;;;21.77;58.78;100992.41;5076440;27;45629;-67
2021/06/29 10:54:36;;;;;;;;;1.00;1.00;;;;;21.74;58.81;100992.75;5076614;27;45611;-66
2021/06/29 10:57:11;;;;;;;;;1.33;1.00;;;;;21.74;59.38;100992.75;5076480;27;45414;-66
2021/06/29 10:59:39;;;;;;;;;1.67;1.67;;;;;21.72;58.73;100992.94;5075424;27;45313;-66
2021/06/29 11:02:06;;;;;;;;;3.33;3.33;;;;;21.73;58.74;100991.09;5076598;27;45657;-67
2021/06/29 11:04:47;;;;;;;;;1.67;1.67;;;;;21.74;57.81;100992.75;5077131;27;45423;-65
2021/06/29 11:07:30;;;;;;;;;2.33;2.00;;;;;21.70;58.77;100991.47;5077345;27;45471;-66
2021/06/29 11:10:25;;;;;;;;;5.67;5.67;;;;;21.65;58.61;100986.66;5079824;27;45323;-66
2021/06/29 11:12:53;;;;;;;;;2.00;1.00;;;;;21.53;58.07;100994.25;5080264;27;45577;-66
2021/06/29 11:15:38;;;;;;;;;3.67;1.00;;;;;21.46;58.89;100993.31;5074642;27;46629;-66
2021/06/29 11:18:04;;;;;;;;;4.67;4.67;;;;;21.43;58.82;100990.97;5064359;28;45597;-67
2021/06/29 11:20:40;;;;;;;;;4.33;4.33;;;;;21.45;58.86;100991.66;5071267;27;45591;-66
2021/06/29 11:23:09;;;;;;;;;2.00;2.00;;;;;21.48;58.57;100995.78;5073516;28;45461;-65
2021/06/29 11:25:37;;;;;;;;;1.00;1.00;;;;;21.45;59.57;100991.66;5072543;27;45516;-66
2021/06/29 11:28:15;;;;;;;;;3.00;3.00;;;;;21.38;59.21;100999.56;5076674;27;45448;-67
2021/06/29 11:31:01;;;;;;;;;4.00;3.00;;;;;21.34;58.27;100994.72;5077176;27;45443;-66